createdAt,value
2017-07-09T00:00:47.940Z,0.00
2017-07-09T00:01:47.936Z,0.00
2017-07-09T00:02:47.995Z,0.00
2017-07-09T00:03:47.930Z,0.00
2017-07-09T00:04:47.943Z,0.00
2017-07-09T00:05:47.848Z,0.00
2017-07-09T00:06:47.936Z,0.00
2017-07-09T00:07:47.853Z,0.00
2017-07-09T00:08:47.943Z,0.00
2017-07-09T00:09:47.861Z,0.00
2017-07-09T00:10:47.940Z,0.00
2017-07-09T00:11:47.937Z,0.00
2017-07-09T00:12:47.941Z,0.00
2017-07-09T00:13:47.947Z,0.00
2017-07-09T00:14:47.946Z,0.00
2017-07-09T00:15:47.865Z,0.00
2017-07-09T00:16:47.953Z,0.00
2017-07-09T00:17:47.909Z,0.00
2017-07-09T00:18:47.899Z,0.00
2017-07-09T00:19:47.865Z,0.00
2017-07-09T00:20:47.998Z,0.00
2017-07-09T00:21:47.941Z,0.00
2017-07-09T00:22:47.916Z,0.00
2017-07-09T00:23:47.923Z,0.00
2017-07-09T00:24:47.922Z,0.00
2017-07-09T00:25:47.924Z,0.00
2017-07-09T00:26:47.922Z,0.00
2017-07-09T00:27:47.926Z,0.00
2017-07-09T00:28:47.922Z,0.00
2017-07-09T00:29:47.925Z,0.00
2017-07-09T00:30:47.923Z,0.00
2017-07-09T00:31:47.893Z,0.00
2017-07-09T00:32:47.915Z,0.00
2017-07-09T00:33:47.864Z,0.00
2017-07-09T00:34:47.870Z,0.00
2017-07-09T00:35:47.963Z,0.00
2017-07-09T00:36:47.963Z,0.00
2017-07-09T00:37:47.967Z,0.00
2017-07-09T00:38:47.850Z,0.00
2017-07-09T00:39:47.906Z,0.00
2017-07-09T00:40:47.899Z,0.00
2017-07-09T00:41:47.870Z,0.00
2017-07-09T00:42:47.962Z,0.00
2017-07-09T00:43:47.970Z,0.00
2017-07-09T00:44:47.894Z,0.00
2017-07-09T00:45:47.949Z,0.00
2017-07-09T00:46:47.886Z,0.00
2017-07-09T00:47:47.880Z,0.00
2017-07-09T00:48:47.936Z,0.00
2017-07-09T00:49:47.972Z,0.00
2017-07-09T00:50:47.974Z,0.00
2017-07-09T00:51:47.954Z,0.00
2017-07-09T00:52:47.966Z,0.00
2017-07-09T00:53:47.937Z,0.00
2017-07-09T00:54:47.970Z,0.00
2017-07-09T00:55:47.891Z,0.00
2017-07-09T00:56:47.888Z,0.00
2017-07-09T00:57:47.924Z,0.00
2017-07-09T00:58:47.969Z,0.00
2017-07-09T00:59:47.979Z,0.00
2017-07-09T01:00:48.038Z,0.00
2017-07-09T01:01:47.955Z,0.00
2017-07-09T01:02:47.956Z,0.00
2017-07-09T01:03:47.955Z,0.00
2017-07-09T01:04:47.957Z,0.00
2017-07-09T01:05:47.957Z,0.00
2017-07-09T01:06:47.957Z,0.00
2017-07-09T01:07:47.973Z,0.00
2017-07-09T01:08:47.959Z,0.00
2017-07-09T01:09:47.957Z,0.00
2017-07-09T01:10:48.044Z,0.00
2017-07-09T01:11:47.982Z,0.00
2017-07-09T01:12:47.982Z,0.00
2017-07-09T01:13:47.913Z,0.00
2017-07-09T01:14:47.978Z,0.00
2017-07-09T01:15:47.978Z,0.00
2017-07-09T01:16:47.981Z,0.00
2017-07-09T01:17:47.990Z,0.00
2017-07-09T01:18:48.014Z,0.00
2017-07-09T01:19:47.989Z,0.00
2017-07-09T01:20:47.991Z,0.00
2017-07-09T01:21:47.952Z,0.00
2017-07-09T01:22:47.954Z,0.00
2017-07-09T01:23:47.956Z,0.00
2017-07-09T01:24:47.955Z,0.00
2017-07-09T01:25:47.957Z,0.00
2017-07-09T01:26:47.960Z,0.00
2017-07-09T01:27:47.956Z,0.00
2017-07-09T01:28:47.957Z,0.00
2017-07-09T01:29:47.958Z,0.00
2017-07-09T01:30:47.959Z,0.00
2017-07-09T01:31:47.924Z,0.00
2017-07-09T01:32:47.999Z,0.00
2017-07-09T01:33:47.903Z,0.00
2017-07-09T01:34:47.993Z,0.00
2017-07-09T01:35:48.000Z,0.00
2017-07-09T01:36:47.988Z,0.00
2017-07-09T01:37:47.910Z,0.00
2017-07-09T01:38:47.912Z,0.00
2017-07-09T01:39:47.998Z,0.00
2017-07-09T01:40:47.908Z,0.00
2017-07-09T01:41:48.011Z,0.00
2017-07-09T01:42:47.958Z,0.00
2017-07-09T01:43:47.999Z,0.00
2017-07-09T01:44:47.994Z,0.00
2017-07-09T01:45:47.997Z,0.00
2017-07-09T01:46:47.996Z,0.00
2017-07-09T01:47:48.011Z,0.00
2017-07-09T01:48:48.020Z,0.00
2017-07-09T01:49:47.932Z,0.00
2017-07-09T01:50:47.970Z,0.00
2017-07-09T01:51:47.999Z,0.00
2017-07-09T01:52:47.918Z,0.00
2017-07-09T01:53:48.001Z,0.00
2017-07-09T01:54:47.994Z,0.00
2017-07-09T01:55:47.920Z,0.00
2017-07-09T01:56:47.931Z,0.00
2017-07-09T01:57:48.020Z,0.00
2017-07-09T01:58:48.003Z,0.00
2017-07-09T01:59:47.972Z,0.00
2017-07-09T02:00:47.923Z,0.00
2017-07-09T02:01:48.006Z,0.00
2017-07-09T02:02:47.990Z,0.00
2017-07-09T02:03:48.006Z,0.00
2017-07-09T02:04:47.990Z,0.00
2017-07-09T02:05:47.991Z,0.00
2017-07-09T02:06:48.012Z,0.00
2017-07-09T02:07:47.998Z,0.00
2017-07-09T02:08:47.987Z,0.00
2017-07-09T02:09:47.994Z,0.00
2017-07-09T02:10:48.009Z,0.00
2017-07-09T02:11:47.997Z,0.00
2017-07-09T02:12:47.997Z,0.00
2017-07-09T02:13:47.998Z,0.00
2017-07-09T02:14:47.994Z,0.00
2017-07-09T02:15:47.976Z,0.00
2017-07-09T02:16:48.002Z,0.00
2017-07-09T02:17:48.003Z,0.00
2017-07-09T02:18:47.998Z,0.00
2017-07-09T02:19:48.001Z,0.00
2017-07-09T02:20:48.000Z,0.00
2017-07-09T02:21:48.015Z,0.00
2017-07-09T02:22:48.017Z,0.00
2017-07-09T02:23:47.936Z,0.00
2017-07-09T02:24:48.005Z,0.00
2017-07-09T02:25:48.010Z,0.00
2017-07-09T02:26:48.021Z,0.00
2017-07-09T02:27:48.025Z,0.00
2017-07-09T02:28:48.027Z,0.00
2017-07-09T02:29:48.011Z,0.00
2017-07-09T02:30:48.021Z,0.00
2017-07-09T02:31:47.939Z,0.00
2017-07-09T02:32:47.990Z,0.00
2017-07-09T02:33:48.026Z,0.00
2017-07-09T02:34:48.009Z,0.00
2017-07-09T02:35:47.959Z,0.00
2017-07-09T02:36:48.104Z,0.00
2017-07-09T02:37:48.027Z,0.00
2017-07-09T02:38:48.033Z,0.00
2017-07-09T02:39:48.023Z,0.00
2017-07-09T02:40:48.018Z,0.00
2017-07-09T02:41:48.039Z,0.00
2017-07-09T02:42:48.016Z,0.00
2017-07-09T02:43:47.932Z,0.00
2017-07-09T02:44:48.017Z,0.00
2017-07-09T02:45:48.013Z,0.00
2017-07-09T02:46:48.015Z,0.00
2017-07-09T02:47:48.016Z,0.00
2017-07-09T02:48:48.017Z,0.00
2017-07-09T02:49:48.020Z,0.00
2017-07-09T02:50:48.019Z,0.00
2017-07-09T02:51:48.042Z,0.00
2017-07-09T02:52:48.042Z,0.00
2017-07-09T02:53:48.036Z,0.00
2017-07-09T02:54:48.037Z,0.00
2017-07-09T02:55:48.025Z,0.00
2017-07-09T02:56:48.040Z,0.00
2017-07-09T02:57:48.001Z,0.00
2017-07-09T02:58:48.046Z,0.00
2017-07-09T02:59:48.013Z,0.00
2017-07-09T03:00:48.046Z,0.00
2017-07-09T03:01:48.006Z,0.00
2017-07-09T03:02:48.024Z,0.00
2017-07-09T03:03:47.926Z,0.00
2017-07-09T03:04:48.022Z,0.00
2017-07-09T03:05:47.945Z,0.00
2017-07-09T03:06:47.934Z,0.00
2017-07-09T03:07:48.037Z,0.00
2017-07-09T03:08:48.040Z,0.00
2017-07-09T03:09:47.989Z,0.00
2017-07-09T03:10:47.943Z,0.00
2017-07-09T03:11:47.980Z,0.00
2017-07-09T03:12:47.918Z,0.00
2017-07-09T03:13:47.989Z,0.00
2017-07-09T03:14:47.919Z,0.00
2017-07-09T03:15:47.991Z,0.00
2017-07-09T03:16:47.991Z,0.00
2017-07-09T03:17:47.942Z,0.00
2017-07-09T03:18:47.949Z,0.00
2017-07-09T03:19:48.055Z,0.00
2017-07-09T03:20:47.991Z,0.00
2017-07-09T03:21:48.000Z,0.00
2017-07-09T03:22:47.966Z,0.00
2017-07-09T03:23:47.986Z,0.00
2017-07-09T03:24:48.065Z,0.00
2017-07-09T03:25:48.073Z,0.00
2017-07-09T03:26:48.071Z,0.00
2017-07-09T03:27:48.062Z,0.00
2017-07-09T03:28:48.058Z,0.00
2017-07-09T03:29:47.977Z,0.00
2017-07-09T03:30:48.026Z,0.00
2017-07-09T03:31:48.056Z,0.00
2017-07-09T03:32:48.052Z,0.00
2017-07-09T03:33:48.066Z,0.00
2017-07-09T03:34:47.972Z,0.00
2017-07-09T03:35:48.057Z,0.00
2017-07-09T03:36:47.966Z,0.00
2017-07-09T03:37:48.047Z,0.00
2017-07-09T03:38:48.054Z,0.00
2017-07-09T03:39:48.055Z,0.00
2017-07-09T03:40:48.060Z,0.00
2017-07-09T03:41:47.962Z,0.00
2017-07-09T03:42:48.036Z,0.00
2017-07-09T03:43:48.037Z,0.00
2017-07-09T03:44:48.036Z,0.00
2017-07-09T03:45:48.035Z,0.00
2017-07-09T03:46:48.040Z,0.00
2017-07-09T03:47:48.039Z,0.00
2017-07-09T03:48:48.039Z,0.00
2017-07-09T03:49:48.041Z,0.00
2017-07-09T03:50:48.040Z,0.00
2017-07-09T03:51:48.042Z,0.00
2017-07-09T03:52:48.068Z,0.00
2017-07-09T03:53:47.991Z,0.00
2017-07-09T03:54:48.066Z,0.00
2017-07-09T03:55:48.059Z,0.00
2017-07-09T03:56:48.081Z,0.00
2017-07-09T03:57:48.067Z,0.00
2017-07-09T03:58:48.079Z,0.00
2017-07-09T03:59:48.076Z,0.00
2017-07-09T04:00:48.061Z,0.00
2017-07-09T04:01:48.081Z,0.00
2017-07-09T04:02:48.033Z,0.00
2017-07-09T04:03:48.084Z,1.00
2017-07-09T04:04:48.085Z,1.00
2017-07-09T04:05:48.027Z,1.00
2017-07-09T04:06:48.017Z,2.00
2017-07-09T04:07:47.989Z,2.00
2017-07-09T04:08:48.026Z,2.00
2017-07-09T04:09:48.084Z,2.00
2017-07-09T04:10:47.985Z,2.00
2017-07-09T04:11:47.993Z,2.00
2017-07-09T04:12:48.067Z,2.00
2017-07-09T04:13:48.070Z,2.00
2017-07-09T04:14:48.064Z,2.00
2017-07-09T04:15:48.065Z,2.00
2017-07-09T04:16:48.079Z,2.00
2017-07-09T04:17:48.064Z,2.00
2017-07-09T04:18:48.067Z,2.00
2017-07-09T04:19:48.068Z,2.00
2017-07-09T04:20:48.065Z,2.00
2017-07-09T04:21:48.068Z,2.00
2017-07-09T04:22:48.088Z,2.00
2017-07-09T04:23:48.089Z,2.00
2017-07-09T04:24:48.071Z,2.00
2017-07-09T04:25:48.093Z,3.00
2017-07-09T04:26:48.004Z,3.00
2017-07-09T04:27:48.005Z,3.00
2017-07-09T04:28:48.005Z,3.00
2017-07-09T04:29:48.083Z,3.00
2017-07-09T04:30:48.085Z,2.00
2017-07-09T04:31:48.105Z,2.00
2017-07-09T04:32:48.061Z,2.00
2017-07-09T04:33:48.073Z,2.00
2017-07-09T04:34:48.089Z,2.00
2017-07-09T04:35:48.101Z,2.00
2017-07-09T04:36:48.110Z,2.00
2017-07-09T04:37:48.012Z,2.00
2017-07-09T04:38:48.098Z,2.00
2017-07-09T04:39:48.099Z,2.00
2017-07-09T04:40:48.014Z,2.00
2017-07-09T04:41:48.013Z,2.00
2017-07-09T04:42:48.083Z,2.00
2017-07-09T04:43:48.084Z,3.00
2017-07-09T04:44:48.081Z,3.00
2017-07-09T04:45:48.083Z,3.00
2017-07-09T04:46:48.086Z,3.00
2017-07-09T04:47:48.086Z,4.00
2017-07-09T04:48:48.144Z,4.00
2017-07-09T04:49:48.086Z,5.00
2017-07-09T04:50:48.087Z,5.00
2017-07-09T04:51:48.092Z,5.00
2017-07-09T04:52:48.018Z,5.00
2017-07-09T04:53:48.104Z,6.00
2017-07-09T04:54:48.116Z,6.00
2017-07-09T04:55:48.023Z,7.00
2017-07-09T04:56:48.101Z,7.00
2017-07-09T04:57:48.015Z,8.00
2017-07-09T04:58:48.104Z,8.00
2017-07-09T04:59:48.115Z,8.00
2017-07-09T05:00:48.071Z,8.00
2017-07-09T05:01:48.113Z,8.00
2017-07-09T05:02:48.077Z,7.00
2017-07-09T05:03:48.082Z,7.00
2017-07-09T05:04:48.081Z,8.00
2017-07-09T05:05:48.087Z,8.00
2017-07-09T05:06:48.082Z,7.00
2017-07-09T05:07:48.124Z,7.00
2017-07-09T05:08:48.080Z,8.00
2017-07-09T05:09:48.086Z,8.00
2017-07-09T05:10:48.083Z,7.00
2017-07-09T05:11:48.085Z,7.00
2017-07-09T05:12:48.089Z,7.00
2017-07-09T05:13:48.112Z,7.00
2017-07-09T05:14:48.031Z,7.00
2017-07-09T05:15:48.115Z,7.00
2017-07-09T05:16:48.035Z,7.00
2017-07-09T05:17:48.118Z,8.00
2017-07-09T05:18:48.132Z,8.00
2017-07-09T05:19:48.035Z,8.00
2017-07-09T05:20:48.030Z,9.00
2017-07-09T05:21:48.124Z,9.00
2017-07-09T05:22:48.133Z,10.00
2017-07-09T05:23:48.102Z,11.00
2017-07-09T05:24:48.103Z,11.00
2017-07-09T05:25:48.102Z,11.00
2017-07-09T05:26:48.108Z,12.00
2017-07-09T05:27:48.103Z,12.00
2017-07-09T05:28:48.110Z,13.00
2017-07-09T05:29:48.109Z,13.00
2017-07-09T05:30:48.111Z,13.00
2017-07-09T05:31:48.107Z,12.00
2017-07-09T05:32:48.107Z,12.00
2017-07-09T05:33:48.126Z,11.00
2017-07-09T05:34:48.128Z,10.00
2017-07-09T05:35:48.125Z,10.00
2017-07-09T05:36:48.124Z,9.00
2017-07-09T05:37:48.141Z,10.00
2017-07-09T05:38:48.054Z,10.00
2017-07-09T05:39:48.140Z,10.00
2017-07-09T05:40:48.138Z,10.00
2017-07-09T05:41:48.111Z,9.00
2017-07-09T05:42:48.129Z,9.00
2017-07-09T05:43:48.041Z,9.00
2017-07-09T05:44:48.049Z,8.00
2017-07-09T05:45:48.054Z,8.00
2017-07-09T05:46:48.050Z,8.00
2017-07-09T05:47:48.114Z,9.00
2017-07-09T05:48:48.113Z,9.00
2017-07-09T05:49:48.052Z,9.00
2017-07-09T05:50:48.056Z,9.00
2017-07-09T05:51:48.140Z,10.00
2017-07-09T05:52:48.138Z,10.00
2017-07-09T05:53:48.111Z,11.00
2017-07-09T05:54:48.027Z,12.00
2017-07-09T05:55:48.115Z,12.00
2017-07-09T05:56:48.110Z,13.00
2017-07-09T05:57:48.108Z,14.00
2017-07-09T05:58:48.112Z,15.00
2017-07-09T05:59:48.108Z,15.00
2017-07-09T06:00:48.111Z,16.00
2017-07-09T06:01:48.111Z,17.00
2017-07-09T06:02:48.208Z,18.00
2017-07-09T06:03:48.129Z,19.00
2017-07-09T06:04:48.128Z,20.00
2017-07-09T06:05:48.127Z,21.00
2017-07-09T06:06:48.122Z,21.00
2017-07-09T06:07:48.126Z,21.00
2017-07-09T06:08:48.126Z,22.00
2017-07-09T06:09:48.125Z,22.00
2017-07-09T06:10:48.128Z,22.00
2017-07-09T06:11:48.127Z,22.00
2017-07-09T06:12:48.127Z,23.00
2017-07-09T06:13:48.114Z,24.00
2017-07-09T06:14:48.124Z,24.00
2017-07-09T06:15:48.118Z,25.00
2017-07-09T06:16:48.115Z,27.00
2017-07-09T06:17:48.118Z,28.00
2017-07-09T06:18:48.119Z,29.00
2017-07-09T06:19:48.117Z,29.00
2017-07-09T06:20:48.120Z,29.00
2017-07-09T06:21:48.118Z,29.00
2017-07-09T06:22:48.124Z,32.00
2017-07-09T06:23:48.125Z,32.00
2017-07-09T06:24:48.123Z,33.00
2017-07-09T06:25:48.125Z,29.00
2017-07-09T06:26:48.123Z,28.00
2017-07-09T06:27:48.048Z,28.00
2017-07-09T06:28:48.128Z,30.00
2017-07-09T06:29:48.125Z,34.00
2017-07-09T06:30:48.125Z,32.00
2017-07-09T06:31:48.128Z,29.00
2017-07-09T06:32:48.129Z,29.00
2017-07-09T06:33:48.144Z,27.00
2017-07-09T06:34:48.141Z,27.00
2017-07-09T06:35:48.141Z,27.00
2017-07-09T06:36:48.146Z,25.00
2017-07-09T06:37:48.144Z,24.00
2017-07-09T06:38:48.144Z,25.00
2017-07-09T06:39:48.145Z,23.00
2017-07-09T06:40:48.143Z,22.00
2017-07-09T06:41:48.143Z,22.00
2017-07-09T06:42:48.143Z,23.00
2017-07-09T06:43:48.141Z,26.00
2017-07-09T06:44:48.163Z,27.00
2017-07-09T06:45:48.161Z,27.00
2017-07-09T06:46:48.175Z,29.00
2017-07-09T06:47:48.076Z,33.00
2017-07-09T06:48:48.085Z,34.00
2017-07-09T06:49:48.078Z,32.00
2017-07-09T06:50:48.168Z,28.00
2017-07-09T06:51:48.093Z,25.00
2017-07-09T06:52:48.168Z,25.00
2017-07-09T06:53:48.152Z,25.00
2017-07-09T06:54:48.153Z,24.00
2017-07-09T06:55:48.153Z,24.00
2017-07-09T06:56:48.150Z,22.00
2017-07-09T06:57:48.153Z,21.00
2017-07-09T06:58:48.155Z,22.00
2017-07-09T06:59:48.156Z,24.00
2017-07-09T07:00:48.074Z,27.00
2017-07-09T07:01:48.155Z,28.00
2017-07-09T07:02:48.159Z,28.00
2017-07-09T07:03:48.129Z,28.00
2017-07-09T07:04:48.077Z,27.00
2017-07-09T07:05:48.131Z,26.00
2017-07-09T07:06:48.070Z,28.00
2017-07-09T07:07:48.086Z,30.00
2017-07-09T07:08:48.085Z,32.00
2017-07-09T07:09:48.135Z,29.00
2017-07-09T07:10:48.122Z,27.00
2017-07-09T07:11:48.135Z,25.00
2017-07-09T07:12:48.137Z,24.00
2017-07-09T07:13:48.161Z,24.00
2017-07-09T07:14:48.164Z,25.00
2017-07-09T07:15:48.163Z,25.00
2017-07-09T07:16:48.160Z,26.00
2017-07-09T07:17:48.165Z,27.00
2017-07-09T07:18:48.167Z,28.00
2017-07-09T07:19:48.167Z,28.00
2017-07-09T07:20:48.164Z,28.00
2017-07-09T07:21:48.166Z,30.00
2017-07-09T07:22:48.165Z,31.00
2017-07-09T07:23:48.181Z,32.00
2017-07-09T07:24:48.187Z,33.00
2017-07-09T07:25:48.189Z,33.00
2017-07-09T07:26:48.109Z,32.00
2017-07-09T07:27:48.187Z,32.00
2017-07-09T07:28:48.108Z,32.00
2017-07-09T07:29:48.199Z,32.00
2017-07-09T07:30:48.155Z,33.00
2017-07-09T07:31:48.113Z,34.00
2017-07-09T07:32:48.185Z,33.00
2017-07-09T07:33:48.172Z,30.00
2017-07-09T07:34:48.177Z,28.00
2017-07-09T07:35:48.175Z,27.00
2017-07-09T07:36:48.173Z,26.00
2017-07-09T07:37:48.175Z,27.00
2017-07-09T07:38:48.177Z,30.00
2017-07-09T07:39:48.175Z,32.00
2017-07-09T07:40:48.174Z,33.00
2017-07-09T07:41:48.179Z,33.00
2017-07-09T07:42:48.178Z,35.00
2017-07-09T07:43:48.178Z,41.00
2017-07-09T07:44:48.181Z,38.00
2017-07-09T07:45:48.179Z,33.00
2017-07-09T07:46:48.180Z,31.00
2017-07-09T07:47:48.181Z,30.00
2017-07-09T07:48:48.181Z,29.00
2017-07-09T07:49:48.185Z,28.00
2017-07-09T07:50:48.179Z,29.00
2017-07-09T07:51:48.187Z,30.00
2017-07-09T07:52:48.181Z,32.00
2017-07-09T07:53:48.185Z,33.00
2017-07-09T07:54:48.213Z,34.00
2017-07-09T07:55:48.199Z,38.00
2017-07-09T07:56:48.120Z,37.00
2017-07-09T07:57:48.206Z,37.00
2017-07-09T07:58:48.212Z,37.00
2017-07-09T07:59:48.200Z,37.00
2017-07-09T08:00:48.203Z,38.00
2017-07-09T08:01:48.281Z,38.00
2017-07-09T08:02:48.122Z,38.00
2017-07-09T08:03:48.132Z,39.00
2017-07-09T08:04:48.209Z,39.00
2017-07-09T08:05:48.193Z,39.00
2017-07-09T08:06:48.210Z,42.00
2017-07-09T08:07:48.206Z,43.00
2017-07-09T08:08:48.210Z,46.00
2017-07-09T08:09:48.130Z,40.00
2017-07-09T08:10:48.196Z,40.00
2017-07-09T08:11:48.186Z,43.00
2017-07-09T08:12:48.214Z,43.00
2017-07-09T08:13:48.131Z,43.00
2017-07-09T08:14:48.198Z,44.00
2017-07-09T08:15:48.199Z,51.00
2017-07-09T08:16:48.299Z,48.00
2017-07-09T08:17:48.196Z,47.00
2017-07-09T08:18:48.202Z,61.00
2017-07-09T08:19:48.197Z,63.00
2017-07-09T08:20:48.198Z,82.00
2017-07-09T08:21:48.121Z,70.00
2017-07-09T08:22:48.203Z,67.00
2017-07-09T08:23:48.202Z,84.00
2017-07-09T08:24:48.223Z,78.00
2017-07-09T08:25:48.213Z,66.00
2017-07-09T08:26:48.228Z,83.00
2017-07-09T08:27:48.196Z,75.00
2017-07-09T08:28:48.203Z,71.00
2017-07-09T08:29:48.223Z,56.00
2017-07-09T08:30:48.185Z,80.00
2017-07-09T08:31:48.184Z,86.00
2017-07-09T08:32:48.225Z,83.00
2017-07-09T08:33:48.276Z,91.00
2017-07-09T08:34:48.114Z,53.00
2017-07-09T08:35:48.119Z,54.00
2017-07-09T08:36:48.223Z,61.00
2017-07-09T08:37:48.097Z,91.00
2017-07-09T08:38:48.223Z,91.00
2017-07-09T08:39:48.118Z,93.00
2017-07-09T08:40:48.131Z,70.00
2017-07-09T08:41:48.114Z,90.00
2017-07-09T08:42:48.122Z,90.00
2017-07-09T08:43:48.230Z,89.00
2017-07-09T08:44:48.145Z,86.00
2017-07-09T08:45:48.210Z,93.00
2017-07-09T08:46:48.230Z,80.00
2017-07-09T08:47:48.231Z,80.00
2017-07-09T08:48:48.238Z,91.00
2017-07-09T08:49:48.238Z,71.00
2017-07-09T08:50:48.238Z,78.00
2017-07-09T08:51:48.231Z,63.00
2017-07-09T08:52:48.236Z,57.00
2017-07-09T08:53:48.238Z,56.00
2017-07-09T08:54:48.158Z,44.00
2017-07-09T08:55:48.241Z,44.00
2017-07-09T08:56:48.232Z,44.00
2017-07-09T08:57:48.154Z,71.00
2017-07-09T08:58:48.243Z,52.00
2017-07-09T08:59:48.149Z,55.00
2017-07-09T09:00:48.244Z,60.00
2017-07-09T09:01:48.219Z,50.00
2017-07-09T09:02:48.237Z,47.00
2017-07-09T09:03:48.164Z,46.00
2017-07-09T09:04:48.245Z,47.00
2017-07-09T09:05:48.356Z,48.00
2017-07-09T09:06:48.248Z,50.00
2017-07-09T09:07:48.222Z,61.00
2017-07-09T09:08:48.232Z,78.00
2017-07-09T09:09:48.272Z,61.00
2017-07-09T09:10:48.250Z,48.00
2017-07-09T09:11:48.171Z,52.00
2017-07-09T09:12:48.171Z,50.00
2017-07-09T09:13:48.172Z,56.00
2017-07-09T09:14:48.220Z,78.00
2017-07-09T09:15:48.223Z,56.00
2017-07-09T09:16:48.226Z,50.00
2017-07-09T09:17:48.225Z,48.00
2017-07-09T09:18:48.225Z,52.00
2017-07-09T09:19:48.222Z,48.00
2017-07-09T09:20:48.223Z,52.00
2017-07-09T09:21:48.223Z,79.00
2017-07-09T09:22:48.223Z,93.00
2017-07-09T09:23:48.223Z,60.00
2017-07-09T09:24:48.222Z,50.00
2017-07-09T09:25:48.229Z,45.00
2017-07-09T09:26:48.223Z,43.00
2017-07-09T09:27:48.225Z,41.00
2017-07-09T09:28:48.228Z,40.00
2017-07-09T09:29:48.231Z,39.00
2017-07-09T09:30:48.227Z,38.00
2017-07-09T09:31:48.228Z,37.00
2017-07-09T09:32:48.226Z,36.00
2017-07-09T09:33:48.232Z,35.00
2017-07-09T09:34:48.180Z,34.00
2017-07-09T09:35:48.255Z,34.00
2017-07-09T09:36:48.241Z,34.00
2017-07-09T09:37:48.239Z,34.00
2017-07-09T09:38:48.266Z,34.00
2017-07-09T09:39:48.252Z,34.00
2017-07-09T09:40:48.181Z,33.00
2017-07-09T09:41:48.270Z,33.00
2017-07-09T09:42:48.244Z,32.00
2017-07-09T09:43:48.184Z,32.00
2017-07-09T09:44:48.248Z,32.00
2017-07-09T09:45:48.253Z,32.00
2017-07-09T09:46:48.251Z,32.00
2017-07-09T09:47:48.246Z,33.00
2017-07-09T09:48:48.252Z,34.00
2017-07-09T09:49:48.252Z,35.00
2017-07-09T09:50:48.253Z,35.00
2017-07-09T09:51:48.252Z,34.00
2017-07-09T09:52:48.235Z,33.00
2017-07-09T09:53:48.254Z,32.00
2017-07-09T09:54:48.256Z,32.00
2017-07-09T09:55:48.253Z,31.00
2017-07-09T09:56:48.252Z,30.00
2017-07-09T09:57:48.261Z,29.00
2017-07-09T09:58:48.259Z,29.00
2017-07-09T09:59:48.273Z,28.00
2017-07-09T10:00:48.256Z,28.00
2017-07-09T10:01:48.257Z,29.00
2017-07-09T10:02:48.175Z,29.00
2017-07-09T10:03:48.262Z,30.00
2017-07-09T10:04:48.196Z,31.00
2017-07-09T10:05:48.282Z,31.00
2017-07-09T10:06:48.282Z,31.00
2017-07-09T10:07:48.203Z,31.00
2017-07-09T10:08:48.280Z,31.00
2017-07-09T10:09:48.192Z,31.00
2017-07-09T10:10:48.201Z,31.00
2017-07-09T10:11:48.284Z,31.00
2017-07-09T10:12:48.205Z,31.00
2017-07-09T10:13:48.284Z,31.00
2017-07-09T10:14:48.281Z,31.00
2017-07-09T10:15:48.197Z,32.00
2017-07-09T10:16:48.286Z,33.00
2017-07-09T10:17:48.282Z,34.00
2017-07-09T10:18:48.277Z,35.00
2017-07-09T10:19:48.285Z,36.00
2017-07-09T10:20:48.291Z,37.00
2017-07-09T10:21:48.263Z,36.00
2017-07-09T10:22:48.199Z,35.00
2017-07-09T10:23:48.190Z,35.00
2017-07-09T10:24:48.187Z,35.00
2017-07-09T10:25:48.231Z,37.00
2017-07-09T10:26:48.237Z,40.00
2017-07-09T10:27:48.232Z,42.00
2017-07-09T10:28:48.147Z,44.00
2017-07-09T10:29:48.216Z,44.00
2017-07-09T10:30:48.176Z,43.00
2017-07-09T10:31:48.234Z,50.00
2017-07-09T10:32:48.235Z,49.00
2017-07-09T10:33:48.240Z,45.00
2017-07-09T10:34:48.263Z,43.00
2017-07-09T10:35:48.271Z,43.00
2017-07-09T10:36:48.265Z,42.00
2017-07-09T10:37:48.266Z,42.00
2017-07-09T10:38:48.268Z,42.00
2017-07-09T10:39:48.272Z,42.00
2017-07-09T10:40:48.275Z,42.00
2017-07-09T10:41:48.274Z,43.00
2017-07-09T10:42:48.270Z,43.00
2017-07-09T10:43:48.270Z,44.00
2017-07-09T10:44:48.313Z,45.00
2017-07-09T10:45:48.215Z,46.00
2017-07-09T10:46:48.303Z,46.00
2017-07-09T10:47:48.259Z,46.00
2017-07-09T10:48:48.303Z,45.00
2017-07-09T10:49:48.223Z,43.00
2017-07-09T10:50:48.304Z,43.00
2017-07-09T10:51:48.335Z,43.00
2017-07-09T10:52:48.304Z,44.00
2017-07-09T10:53:48.213Z,50.00
2017-07-09T10:54:48.307Z,48.00
2017-07-09T10:55:48.308Z,48.00
2017-07-09T10:56:48.310Z,51.00
2017-07-09T10:57:48.221Z,55.00
2017-07-09T10:58:48.316Z,63.00
2017-07-09T10:59:48.312Z,77.00
2017-07-09T11:00:48.310Z,79.00
2017-07-09T11:01:48.236Z,78.00
2017-07-09T11:02:48.236Z,86.00
2017-07-09T11:03:48.309Z,81.00
2017-07-09T11:04:48.297Z,72.00
2017-07-09T11:05:48.296Z,70.00
2017-07-09T11:06:48.300Z,89.00
2017-07-09T11:07:48.297Z,91.00
2017-07-09T11:08:48.297Z,88.00
2017-07-09T11:09:48.301Z,94.00
2017-07-09T11:10:48.301Z,98.00
2017-07-09T11:11:48.305Z,99.00
2017-07-09T11:12:48.303Z,99.00
2017-07-09T11:13:48.302Z,99.00
2017-07-09T11:14:48.326Z,99.00
2017-07-09T11:15:48.320Z,99.00
2017-07-09T11:16:48.327Z,99.00
2017-07-09T11:17:48.319Z,99.00
2017-07-09T11:18:48.281Z,99.00
2017-07-09T11:19:48.318Z,99.00
2017-07-09T11:20:48.323Z,99.00
2017-07-09T11:21:48.233Z,99.00
2017-07-09T11:22:48.248Z,99.00
2017-07-09T11:23:48.241Z,99.00
2017-07-09T11:24:48.306Z,78.00
2017-07-09T11:25:48.305Z,99.00
2017-07-09T11:26:48.308Z,99.00
2017-07-09T11:27:48.309Z,99.00
2017-07-09T11:28:48.232Z,99.00
2017-07-09T11:29:48.317Z,99.00
2017-07-09T11:30:48.307Z,99.00
2017-07-09T11:31:48.309Z,99.00
2017-07-09T11:32:48.310Z,99.00
2017-07-09T11:33:48.318Z,99.00
2017-07-09T11:34:48.351Z,99.00
2017-07-09T11:35:48.311Z,99.00
2017-07-09T11:36:48.240Z,99.00
2017-07-09T11:37:48.330Z,92.00
2017-07-09T11:38:48.330Z,99.00
2017-07-09T11:39:48.246Z,99.00
2017-07-09T11:40:48.329Z,99.00
2017-07-09T11:41:48.263Z,99.00
2017-07-09T11:42:48.330Z,99.00
2017-07-09T11:43:48.296Z,99.00
2017-07-09T11:44:48.292Z,99.00
2017-07-09T11:45:48.216Z,99.00
2017-07-09T11:46:48.222Z,99.00
2017-07-09T11:47:48.335Z,99.00
2017-07-09T11:48:48.312Z,99.00
2017-07-09T11:49:48.231Z,99.00
2017-07-09T11:50:48.202Z,99.00
2017-07-09T11:51:48.243Z,99.00
2017-07-09T11:52:48.319Z,99.00
2017-07-09T11:53:48.226Z,99.00
2017-07-09T11:54:48.315Z,99.00
2017-07-09T11:55:48.314Z,99.00
2017-07-09T11:56:48.314Z,99.00
2017-07-09T11:57:48.315Z,99.00
2017-07-09T11:58:48.313Z,99.00
2017-07-09T11:59:48.316Z,99.00
2017-07-09T12:00:48.315Z,99.00
2017-07-09T12:01:48.320Z,99.00
2017-07-09T12:02:48.315Z,99.00
2017-07-09T12:03:48.320Z,99.00
2017-07-09T12:04:48.316Z,99.00
2017-07-09T12:05:48.320Z,99.00
2017-07-09T12:06:48.321Z,99.00
2017-07-09T12:07:48.321Z,99.00
2017-07-09T12:08:48.318Z,99.00
2017-07-09T12:09:48.321Z,93.00
2017-07-09T12:10:48.323Z,88.00
2017-07-09T12:11:48.327Z,99.00
2017-07-09T12:12:48.324Z,99.00
2017-07-09T12:13:48.323Z,99.00
2017-07-09T12:14:48.361Z,97.00
2017-07-09T12:15:48.276Z,96.00
2017-07-09T12:16:48.357Z,99.00
2017-07-09T12:17:48.355Z,92.00
2017-07-09T12:18:48.349Z,90.00
2017-07-09T12:19:48.370Z,99.00
2017-07-09T12:20:48.360Z,99.00
2017-07-09T12:21:48.367Z,92.00
2017-07-09T12:22:48.343Z,92.00
2017-07-09T12:23:48.338Z,92.00
2017-07-09T12:24:48.367Z,85.00
2017-07-09T12:25:48.368Z,73.00
2017-07-09T12:26:48.365Z,75.00
2017-07-09T12:27:48.366Z,90.00
2017-07-09T12:28:48.361Z,99.00
2017-07-09T12:29:48.366Z,99.00
2017-07-09T12:30:48.273Z,99.00
2017-07-09T12:31:48.277Z,99.00
2017-07-09T12:32:48.374Z,99.00
2017-07-09T12:33:48.280Z,99.00
2017-07-09T12:34:48.240Z,98.00
2017-07-09T12:35:48.240Z,99.00
2017-07-09T12:36:48.244Z,99.00
2017-07-09T12:37:48.255Z,88.00
2017-07-09T12:38:48.339Z,81.00
2017-07-09T12:39:48.211Z,78.00
2017-07-09T12:40:48.242Z,69.00
2017-07-09T12:41:48.212Z,69.00
2017-07-09T12:42:48.249Z,91.00
2017-07-09T12:43:48.243Z,85.00
2017-07-09T12:44:48.355Z,97.00
2017-07-09T12:45:48.353Z,99.00
2017-07-09T12:46:48.354Z,99.00
2017-07-09T12:47:48.354Z,99.00
2017-07-09T12:48:48.364Z,99.00
2017-07-09T12:49:48.354Z,99.00
2017-07-09T12:50:48.357Z,99.00
2017-07-09T12:51:48.355Z,99.00
2017-07-09T12:52:48.359Z,72.00
2017-07-09T12:53:48.364Z,99.00
2017-07-09T12:54:48.294Z,99.00
2017-07-09T12:55:48.370Z,53.00
2017-07-09T12:56:48.374Z,91.00
2017-07-09T12:57:48.382Z,92.00
2017-07-09T12:58:48.387Z,95.00
2017-07-09T12:59:48.385Z,43.00
2017-07-09T13:00:48.303Z,40.00
2017-07-09T13:01:48.305Z,41.00
2017-07-09T13:02:48.390Z,47.00
2017-07-09T13:03:48.373Z,99.00